sensor_id;sensor_type;location;lat;lon;timestamp;P1;durP1;ratioP1;P2;durP2;ratioP2
16029;SDS011;34770;49.272;11.070;2024-03-22T00:02:18;2.80;;;2.60;;
16029;SDS011;34770;49.272;11.070;2024-03-22T00:04:44;2.65;;;2.45;;
16029;SDS011;34770;49.272;11.070;2024-03-22T00:07:09;3.10;;;2.75;;
16029;SDS011;34770;49.272;11.070;2024-03-22T00:09:34;2.72;;;2.53;;
16029;SDS011;34770;49.272;11.070;2024-03-22T00:12:00;3.13;;;2.92;;
16029;SDS011;34770;49.272;11.070;2024-03-22T00:14:25;2.53;;;2.33;;
16029;SDS011;34770;49.272;11.070;2024-03-22T00:16:50;3.20;;;2.50;;
16029;SDS011;34770;49.272;11.070;2024-03-22T00:19:16;2.85;;;2.65;;
16029;SDS011;34770;49.272;11.070;2024-03-22T00:21:41;2.70;;;2.50;;
16029;SDS011;34770;49.272;11.070;2024-03-22T00:24:07;3.53;;;2.90;;
16029;SDS011;34770;49.272;11.070;2024-03-22T00:26:32;2.90;;;2.70;;
16029;SDS011;34770;49.272;11.070;2024-03-22T00:28:58;3.10;;;2.75;;
16029;SDS011;34770;49.272;11.070;2024-03-22T00:31:23;3.05;;;2.83;;
16029;SDS011;34770;49.272;11.070;2024-03-22T00:33:49;2.70;;;2.50;;
16029;SDS011;34770;49.272;11.070;2024-03-22T00:36:14;2.80;;;2.60;;
16029;SDS011;34770;49.272;11.070;2024-03-22T00:38:40;3.58;;;2.80;;
16029;SDS011;34770;49.272;11.070;2024-03-22T00:41:05;2.80;;;2.60;;
16029;SDS011;34770;49.272;11.070;2024-03-22T00:43:31;3.08;;;2.88;;
16029;SDS011;34770;49.272;11.070;2024-03-22T00:45:56;3.40;;;3.10;;
16029;SDS011;34770;49.272;11.070;2024-03-22T00:48:23;2.85;;;2.65;;
16029;SDS011;34770;49.272;11.070;2024-03-22T00:50:48;3.15;;;2.85;;
16029;SDS011;34770;49.272;11.070;2024-03-22T00:53:14;2.67;;;2.47;;
16029;SDS011;34770;49.272;11.070;2024-03-22T00:55:39;2.83;;;2.63;;
16029;SDS011;34770;49.272;11.070;2024-03-22T00:58:04;3.80;;;3.38;;
16029;SDS011;34770;49.272;11.070;2024-03-22T01:00:30;3.08;;;2.85;;
16029;SDS011;34770;49.272;11.070;2024-03-22T01:02:55;3.15;;;2.65;;
16029;SDS011;34770;49.272;11.070;2024-03-22T01:05:21;3.47;;;3.17;;
16029;SDS011;34770;49.272;11.070;2024-03-22T01:07:46;2.67;;;2.47;;
16029;SDS011;34770;49.272;11.070;2024-03-22T01:10:12;2.95;;;2.75;;
16029;SDS011;34770;49.272;11.070;2024-03-22T01:12:37;3.08;;;2.78;;
16029;SDS011;34770;49.272;11.070;2024-03-22T01:15:04;4.03;;;2.80;;
16029;SDS011;34770;49.272;11.070;2024-03-22T01:17:30;2.85;;;2.65;;
16029;SDS011;34770;49.272;11.070;2024-03-22T01:19:55;2.90;;;2.70;;
16029;SDS011;34770;49.272;11.070;2024-03-22T01:22:21;3.30;;;2.42;;
16029;SDS011;34770;49.272;11.070;2024-03-22T01:24:46;3.53;;;2.72;;
16029;SDS011;34770;49.272;11.070;2024-03-22T01:27:12;2.95;;;2.70;;
16029;SDS011;34770;49.272;11.070;2024-03-22T01:29:37;3.03;;;2.80;;
16029;SDS011;34770;49.272;11.070;2024-03-22T01:32:02;2.83;;;2.63;;
16029;SDS011;34770;49.272;11.070;2024-03-22T01:34:28;2.88;;;2.55;;
16029;SDS011;34770;49.272;11.070;2024-03-22T01:36:54;3.88;;;3.10;;
16029;SDS011;34770;49.272;11.070;2024-03-22T01:39:20;2.85;;;2.50;;
16029;SDS011;34770;49.272;11.070;2024-03-22T01:41:49;3.00;;;2.80;;
16029;SDS011;34770;49.272;11.070;2024-03-22T01:44:15;2.97;;;2.67;;
16029;SDS011;34770;49.272;11.070;2024-03-22T01:46:42;2.75;;;2.55;;
16029;SDS011;34770;49.272;11.070;2024-03-22T01:49:09;3.10;;;2.88;;
16029;SDS011;34770;49.272;11.070;2024-03-22T01:51:36;3.00;;;2.80;;
16029;SDS011;34770;49.272;11.070;2024-03-22T01:54:02;2.70;;;2.50;;
16029;SDS011;34770;49.272;11.070;2024-03-22T01:56:28;2.90;;;2.70;;
16029;SDS011;34770;49.272;11.070;2024-03-22T01:58:54;3.08;;;2.78;;
16029;SDS011;34770;49.272;11.070;2024-03-22T02:01:21;2.83;;;2.63;;
16029;SDS011;34770;49.272;11.070;2024-03-22T02:03:46;2.88;;;2.65;;
16029;SDS011;34770;49.272;11.070;2024-03-22T02:06:12;3.15;;;2.85;;
16029;SDS011;34770;49.272;11.070;2024-03-22T02:08:37;3.10;;;2.80;;
16029;SDS011;34770;49.272;11.070;2024-03-22T02:11:05;3.28;;;2.97;;
16029;SDS011;34770;49.272;11.070;2024-03-22T02:13:31;3.00;;;2.70;;
16029;SDS011;34770;49.272;11.070;2024-03-22T02:15:56;2.70;;;2.50;;
16029;SDS011;34770;49.272;11.070;2024-03-22T02:18:22;3.00;;;2.80;;
16029;SDS011;34770;49.272;11.070;2024-03-22T02:20:48;2.53;;;2.33;;
16029;SDS011;34770;49.272;11.070;2024-03-22T02:23:13;2.72;;;2.42;;
16029;SDS011;34770;49.272;11.070;2024-03-22T02:25:38;2.70;;;2.50;;
16029;SDS011;34770;49.272;11.070;2024-03-22T02:28:04;3.53;;;2.75;;
16029;SDS011;34770;49.272;11.070;2024-03-22T02:30:29;2.38;;;2.17;;
16029;SDS011;34770;49.272;11.070;2024-03-22T02:32:55;2.50;;;2.30;;
16029;SDS011;34770;49.272;11.070;2024-03-22T02:35:20;2.70;;;2.50;;
16029;SDS011;34770;49.272;11.070;2024-03-22T02:37:45;2.72;;;2.53;;
16029;SDS011;34770;49.272;11.070;2024-03-22T02:40:11;2.97;;;2.72;;
16029;SDS011;34770;49.272;11.070;2024-03-22T02:42:37;2.95;;;2.70;;
16029;SDS011;34770;49.272;11.070;2024-03-22T02:45:02;2.80;;;2.60;;
16029;SDS011;34770;49.272;11.070;2024-03-22T02:47:28;2.83;;;2.63;;
16029;SDS011;34770;49.272;11.070;2024-03-22T02:49:53;2.70;;;2.50;;
16029;SDS011;34770;49.272;11.070;2024-03-22T02:52:19;3.30;;;3.03;;
16029;SDS011;34770;49.272;11.070;2024-03-22T02:54:44;3.20;;;2.90;;
16029;SDS011;34770;49.272;11.070;2024-03-22T02:57:09;3.05;;;2.80;;
16029;SDS011;34770;49.272;11.070;2024-03-22T02:59:35;2.72;;;2.53;;
16029;SDS011;34770;49.272;11.070;2024-03-22T03:02:00;2.85;;;2.65;;
16029;SDS011;34770;49.272;11.070;2024-03-22T03:04:25;3.20;;;2.95;;
16029;SDS011;34770;49.272;11.070;2024-03-22T03:06:51;3.25;;;2.85;;
16029;SDS011;34770;49.272;11.070;2024-03-22T03:09:16;2.90;;;2.70;;
16029;SDS011;34770;49.272;11.070;2024-03-22T03:11:41;2.83;;;2.63;;
16029;SDS011;34770;49.272;11.070;2024-03-22T03:14:07;2.78;;;2.58;;
16029;SDS011;34770;49.272;11.070;2024-03-22T03:16:32;2.90;;;2.70;;
16029;SDS011;34770;49.272;11.070;2024-03-22T03:18:58;2.95;;;2.65;;
16029;SDS011;34770;49.272;11.070;2024-03-22T03:21:23;3.10;;;2.90;;
16029;SDS011;34770;49.272;11.070;2024-03-22T03:23:48;2.95;;;2.65;;
16029;SDS011;34770;49.272;11.070;2024-03-22T03:26:14;2.70;;;2.50;;
16029;SDS011;34770;49.272;11.070;2024-03-22T03:28:39;2.70;;;2.50;;
16029;SDS011;34770;49.272;11.070;2024-03-22T03:31:04;3.47;;;3.28;;
16029;SDS011;34770;49.272;11.070;2024-03-22T03:33:30;2.63;;;2.42;;
16029;SDS011;34770;49.272;11.070;2024-03-22T03:35:55;2.90;;;2.70;;
16029;SDS011;34770;49.272;11.070;2024-03-22T03:38:21;3.75;;;2.97;;
16029;SDS011;34770;49.272;11.070;2024-03-22T03:40:47;3.53;;;3.22;;
16029;SDS011;34770;49.272;11.070;2024-03-22T03:43:12;2.58;;;2.38;;
16029;SDS011;34770;49.272;11.070;2024-03-22T03:45:38;2.67;;;2.47;;
16029;SDS011;34770;49.272;11.070;2024-03-22T03:48:03;3.30;;;2.92;;
16029;SDS011;34770;49.272;11.070;2024-03-22T03:50:29;3.33;;;3.03;;
16029;SDS011;34770;49.272;11.070;2024-03-22T03:52:54;2.65;;;2.45;;
16029;SDS011;34770;49.272;11.070;2024-03-22T03:55:20;2.70;;;2.50;;
16029;SDS011;34770;49.272;11.070;2024-03-22T03:57:45;2.83;;;2.58;;
16029;SDS011;34770;49.272;11.070;2024-03-22T04:00:10;2.80;;;2.60;;
16029;SDS011;34770;49.272;11.070;2024-03-22T04:02:36;3.70;;;2.88;;
16029;SDS011;34770;49.272;11.070;2024-03-22T04:05:01;2.90;;;2.70;;
16029;SDS011;34770;49.272;11.070;2024-03-22T04:07:27;2.63;;;2.42;;
16029;SDS011;34770;49.272;11.070;2024-03-22T04:09:54;3.17;;;2.90;;
16029;SDS011;34770;49.272;11.070;2024-03-22T04:12:19;2.58;;;2.20;;
16029;SDS011;34770;49.272;11.070;2024-03-22T04:14:44;4.32;;;2.72;;
16029;SDS011;34770;49.272;11.070;2024-03-22T04:17:10;2.85;;;2.65;;
16029;SDS011;34770;49.272;11.070;2024-03-22T04:19:35;3.28;;;2.67;;
16029;SDS011;34770;49.272;11.070;2024-03-22T04:22:00;4.00;;;2.70;;
16029;SDS011;34770;49.272;11.070;2024-03-22T04:24:26;3.20;;;2.97;;
16029;SDS011;34770;49.272;11.070;2024-03-22T04:26:51;2.97;;;2.78;;
16029;SDS011;34770;49.272;11.070;2024-03-22T04:29:16;2.90;;;2.70;;
16029;SDS011;34770;49.272;11.070;2024-03-22T04:31:42;3.15;;;2.95;;
16029;SDS011;34770;49.272;11.070;2024-03-22T04:34:07;2.95;;;2.75;;
16029;SDS011;34770;49.272;11.070;2024-03-22T04:36:33;3.05;;;2.85;;
16029;SDS011;34770;49.272;11.070;2024-03-22T04:38:58;2.70;;;2.50;;
16029;SDS011;34770;49.272;11.070;2024-03-22T04:41:24;3.00;;;2.80;;
16029;SDS011;34770;49.272;11.070;2024-03-22T04:43:49;2.78;;;2.58;;
16029;SDS011;34770;49.272;11.070;2024-03-22T04:46:15;2.90;;;2.20;;
16029;SDS011;34770;49.272;11.070;2024-03-22T04:48:40;2.80;;;2.60;;
16029;SDS011;34770;49.272;11.070;2024-03-22T04:51:05;2.40;;;2.20;;
16029;SDS011;34770;49.272;11.070;2024-03-22T04:53:31;3.08;;;2.83;;
16029;SDS011;34770;49.272;11.070;2024-03-22T04:55:56;3.20;;;2.50;;
16029;SDS011;34770;49.272;11.070;2024-03-22T04:58:21;2.92;;;2.72;;
16029;SDS011;34770;49.272;11.070;2024-03-22T05:00:47;2.75;;;2.55;;
16029;SDS011;34770;49.272;11.070;2024-03-22T05:03:14;2.70;;;2.45;;
16029;SDS011;34770;49.272;11.070;2024-03-22T05:05:40;2.75;;;2.55;;
16029;SDS011;34770;49.272;11.070;2024-03-22T05:08:07;2.88;;;2.60;;
16029;SDS011;34770;49.272;11.070;2024-03-22T05:10:32;2.72;;;2.50;;
16029;SDS011;34770;49.272;11.070;2024-03-22T05:12:58;2.45;;;2.25;;
16029;SDS011;34770;49.272;11.070;2024-03-22T05:15:24;2.70;;;2.50;;
16029;SDS011;34770;49.272;11.070;2024-03-22T05:17:53;2.70;;;2.50;;
16029;SDS011;34770;49.272;11.070;2024-03-22T05:20:19;2.95;;;2.75;;
16029;SDS011;34770;49.272;11.070;2024-03-22T05:22:45;2.80;;;2.60;;
16029;SDS011;34770;49.272;11.070;2024-03-22T05:25:11;3.10;;;2.90;;
16029;SDS011;34770;49.272;11.070;2024-03-22T05:27:38;2.85;;;2.60;;
16029;SDS011;34770;49.272;11.070;2024-03-22T05:30:03;2.95;;;2.63;;
16029;SDS011;34770;49.272;11.070;2024-03-22T05:32:29;3.03;;;2.78;;
16029;SDS011;34770;49.272;11.070;2024-03-22T05:34:54;3.60;;;2.92;;
16029;SDS011;34770;49.272;11.070;2024-03-22T05:37:20;2.55;;;2.35;;
16029;SDS011;34770;49.272;11.070;2024-03-22T05:39:45;2.47;;;2.30;;
16029;SDS011;34770;49.272;11.070;2024-03-22T05:42:11;2.80;;;2.60;;
16029;SDS011;34770;49.272;11.070;2024-03-22T05:44:36;2.80;;;2.60;;
16029;SDS011;34770;49.272;11.070;2024-03-22T05:47:01;2.70;;;2.50;;
16029;SDS011;34770;49.272;11.070;2024-03-22T05:49:27;2.92;;;2.72;;
16029;SDS011;34770;49.272;11.070;2024-03-22T05:51:52;2.80;;;2.60;;
16029;SDS011;34770;49.272;11.070;2024-03-22T05:54:17;2.95;;;2.67;;
16029;SDS011;34770;49.272;11.070;2024-03-22T05:56:43;2.80;;;2.60;;
16029;SDS011;34770;49.272;11.070;2024-03-22T05:59:08;3.03;;;2.72;;
16029;SDS011;34770;49.272;11.070;2024-03-22T06:01:35;3.10;;;2.85;;
16029;SDS011;34770;49.272;11.070;2024-03-22T06:04:00;2.60;;;2.40;;
16029;SDS011;34770;49.272;11.070;2024-03-22T06:06:25;2.90;;;2.70;;
16029;SDS011;34770;49.272;11.070;2024-03-22T06:08:54;2.60;;;2.40;;
16029;SDS011;34770;49.272;11.070;2024-03-22T06:11:21;3.00;;;2.80;;
16029;SDS011;34770;49.272;11.070;2024-03-22T06:13:47;2.90;;;2.70;;
16029;SDS011;34770;49.272;11.070;2024-03-22T06:16:12;2.80;;;2.60;;
16029;SDS011;34770;49.272;11.070;2024-03-22T06:18:38;2.90;;;2.63;;
16029;SDS011;34770;49.272;11.070;2024-03-22T06:21:04;3.55;;;3.25;;
16029;SDS011;34770;49.272;11.070;2024-03-22T06:23:30;2.90;;;2.70;;
16029;SDS011;34770;49.272;11.070;2024-03-22T06:25:55;2.65;;;2.45;;
16029;SDS011;34770;49.272;11.070;2024-03-22T06:28:21;2.80;;;2.47;;
16029;SDS011;34770;49.272;11.070;2024-03-22T06:30:47;3.40;;;3.00;;
16029;SDS011;34770;49.272;11.070;2024-03-22T06:33:12;2.70;;;2.50;;
16029;SDS011;34770;49.272;11.070;2024-03-22T06:35:38;2.75;;;2.55;;
16029;SDS011;34770;49.272;11.070;2024-03-22T06:38:04;2.70;;;2.50;;
16029;SDS011;34770;49.272;11.070;2024-03-22T06:40:29;3.10;;;2.90;;
16029;SDS011;34770;49.272;11.070;2024-03-22T06:42:55;3.38;;;3.10;;
16029;SDS011;34770;49.272;11.070;2024-03-22T06:45:21;2.83;;;2.63;;
16029;SDS011;34770;49.272;11.070;2024-03-22T06:47:46;3.60;;;2.75;;
16029;SDS011;34770;49.272;11.070;2024-03-22T06:50:12;3.15;;;2.67;;
16029;SDS011;34770;49.272;11.070;2024-03-22T06:52:38;3.05;;;2.47;;
16029;SDS011;34770;49.272;11.070;2024-03-22T06:55:03;2.90;;;2.60;;
16029;SDS011;34770;49.272;11.070;2024-03-22T06:57:29;2.90;;;2.70;;
16029;SDS011;34770;49.272;11.070;2024-03-22T06:59:54;2.72;;;2.53;;
16029;SDS011;34770;49.272;11.070;2024-03-22T07:02:20;2.60;;;2.40;;
16029;SDS011;34770;49.272;11.070;2024-03-22T07:04:45;2.88;;;2.63;;
16029;SDS011;34770;49.272;11.070;2024-03-22T07:07:11;2.65;;;2.45;;
16029;SDS011;34770;49.272;11.070;2024-03-22T07:09:36;2.83;;;2.63;;
16029;SDS011;34770;49.272;11.070;2024-03-22T07:12:02;2.65;;;2.45;;
16029;SDS011;34770;49.272;11.070;2024-03-22T07:14:27;3.03;;;2.83;;
16029;SDS011;34770;49.272;11.070;2024-03-22T07:16:53;2.95;;;2.75;;
16029;SDS011;34770;49.272;11.070;2024-03-22T07:19:19;3.53;;;2.75;;
16029;SDS011;34770;49.272;11.070;2024-03-22T07:21:46;2.47;;;2.30;;
16029;SDS011;34770;49.272;11.070;2024-03-22T07:24:12;2.90;;;2.60;;
16029;SDS011;34770;49.272;11.070;2024-03-22T07:26:37;2.75;;;2.53;;
16029;SDS011;34770;49.272;11.070;2024-03-22T07:29:02;3.00;;;2.80;;
16029;SDS011;34770;49.272;11.070;2024-03-22T07:31:28;2.90;;;2.70;;
16029;SDS011;34770;49.272;11.070;2024-03-22T07:33:53;2.95;;;2.75;;
16029;SDS011;34770;49.272;11.070;2024-03-22T07:36:19;2.60;;;2.40;;
16029;SDS011;34770;49.272;11.070;2024-03-22T07:38:45;2.88;;;2.58;;
16029;SDS011;34770;49.272;11.070;2024-03-22T07:41:10;2.95;;;2.75;;
16029;SDS011;34770;49.272;11.070;2024-03-22T07:43:36;2.92;;;2.72;;
16029;SDS011;34770;49.272;11.070;2024-03-22T07:46:01;3.05;;;2.78;;
16029;SDS011;34770;49.272;11.070;2024-03-22T07:48:26;3.08;;;2.80;;
16029;SDS011;34770;49.272;11.070;2024-03-22T07:50:58;2.00;;;1.90;;
16029;SDS011;34770;49.272;11.070;2024-03-22T07:53:25;2.55;;;2.35;;
16029;SDS011;34770;49.272;11.070;2024-03-22T07:55:50;2.67;;;2.47;;
16029;SDS011;34770;49.272;11.070;2024-03-22T07:58:15;2.63;;;2.42;;
16029;SDS011;34770;49.272;11.070;2024-03-22T08:00:41;2.60;;;2.40;;
16029;SDS011;34770;49.272;11.070;2024-03-22T08:03:06;2.72;;;2.45;;
16029;SDS011;34770;49.272;11.070;2024-03-22T08:05:33;2.63;;;2.42;;
16029;SDS011;34770;49.272;11.070;2024-03-22T08:07:58;3.10;;;2.80;;
16029;SDS011;34770;49.272;11.070;2024-03-22T08:10:23;3.03;;;2.83;;
16029;SDS011;34770;49.272;11.070;2024-03-22T08:12:49;2.70;;;2.50;;
16029;SDS011;34770;49.272;11.070;2024-03-22T08:15:14;2.70;;;2.47;;
16029;SDS011;34770;49.272;11.070;2024-03-22T08:17:40;2.72;;;2.53;;
16029;SDS011;34770;49.272;11.070;2024-03-22T08:20:06;2.85;;;2.65;;
16029;SDS011;34770;49.272;11.070;2024-03-22T08:22:32;2.90;;;2.70;;
16029;SDS011;34770;49.272;11.070;2024-03-22T08:24:57;4.38;;;2.92;;
16029;SDS011;34770;49.272;11.070;2024-03-22T08:27:22;2.78;;;2.58;;
16029;SDS011;34770;49.272;11.070;2024-03-22T08:29:49;3.90;;;2.90;;
16029;SDS011;34770;49.272;11.070;2024-03-22T08:32:15;3.17;;;2.95;;
16029;SDS011;34770;49.272;11.070;2024-03-22T08:34:40;3.83;;;3.53;;
16029;SDS011;34770;49.272;11.070;2024-03-22T08:37:05;3.75;;;3.45;;
16029;SDS011;34770;49.272;11.070;2024-03-22T08:39:31;4.30;;;3.90;;
16029;SDS011;34770;49.272;11.070;2024-03-22T08:41:56;4.22;;;3.83;;
16029;SDS011;34770;49.272;11.070;2024-03-22T08:44:22;4.18;;;3.75;;
16029;SDS011;34770;49.272;11.070;2024-03-22T08:46:47;3.95;;;3.65;;
16029;SDS011;34770;49.272;11.070;2024-03-22T08:49:13;3.80;;;3.50;;
16029;SDS011;34770;49.272;11.070;2024-03-22T08:51:39;5.28;;;4.40;;
16029;SDS011;34770;49.272;11.070;2024-03-22T08:54:04;5.57;;;3.90;;
16029;SDS011;34770;49.272;11.070;2024-03-22T08:56:30;4.80;;;3.95;;
16029;SDS011;34770;49.272;11.070;2024-03-22T08:58:55;4.68;;;4.15;;
16029;SDS011;34770;49.272;11.070;2024-03-22T09:01:21;5.13;;;4.45;;
16029;SDS011;34770;49.272;11.070;2024-03-22T09:03:47;7.22;;;5.18;;
16029;SDS011;34770;49.272;11.070;2024-03-22T09:06:14;6.43;;;5.13;;
16029;SDS011;34770;49.272;11.070;2024-03-22T09:08:39;7.30;;;5.00;;
16029;SDS011;34770;49.272;11.070;2024-03-22T09:11:05;5.32;;;4.47;;
16029;SDS011;34770;49.272;11.070;2024-03-22T09:13:30;5.47;;;4.93;;
16029;SDS011;34770;49.272;11.070;2024-03-22T09:15:59;5.75;;;5.13;;
16029;SDS011;34770;49.272;11.070;2024-03-22T09:18:25;5.63;;;5.03;;
16029;SDS011;34770;49.272;11.070;2024-03-22T09:20:51;6.57;;;4.47;;
16029;SDS011;34770;49.272;11.070;2024-03-22T09:36:05;9.02;;;8.05;;
16029;SDS011;34770;49.272;11.070;2024-03-22T09:38:31;11.07;;;9.05;;
16029;SDS011;34770;49.272;11.070;2024-03-22T09:40:57;11.02;;;9.15;;
16029;SDS011;34770;49.272;11.070;2024-03-22T09:43:23;9.88;;;8.88;;
16029;SDS011;34770;49.272;11.070;2024-03-22T09:45:52;9.07;;;8.05;;
16029;SDS011;34770;49.272;11.070;2024-03-22T09:48:18;9.68;;;7.72;;
16029;SDS011;34770;49.272;11.070;2024-03-22T09:50:47;10.82;;;8.10;;
16029;SDS011;34770;49.272;11.070;2024-03-22T09:53:13;10.55;;;8.60;;
16029;SDS011;34770;49.272;11.070;2024-03-22T09:55:41;10.77;;;8.63;;
16029;SDS011;34770;49.272;11.070;2024-03-22T09:58:09;10.00;;;8.82;;
16029;SDS011;34770;49.272;11.070;2024-03-22T10:00:35;12.00;;;8.68;;
16029;SDS011;34770;49.272;11.070;2024-03-22T10:03:00;11.07;;;8.63;;
16029;SDS011;34770;49.272;11.070;2024-03-22T10:05:27;11.32;;;9.57;;
16029;SDS011;34770;49.272;11.070;2024-03-22T10:07:53;11.13;;;8.35;;
16029;SDS011;34770;49.272;11.070;2024-03-22T10:10:19;9.30;;;7.40;;
16029;SDS011;34770;49.272;11.070;2024-03-22T10:12:44;9.38;;;8.38;;
16029;SDS011;34770;49.272;11.070;2024-03-22T10:15:10;10.23;;;8.85;;
16029;SDS011;34770;49.272;11.070;2024-03-22T10:17:37;10.88;;;8.93;;
16029;SDS011;34770;49.272;11.070;2024-03-22T10:20:04;13.23;;;8.15;;
16029;SDS011;34770;49.272;11.070;2024-03-22T10:22:37;12.70;;;8.80;;
16029;SDS011;34770;49.272;11.070;2024-03-22T10:25:06;9.20;;;7.57;;
16029;SDS011;34770;49.272;11.070;2024-03-22T10:27:32;9.20;;;7.32;;
16029;SDS011;34770;49.272;11.070;2024-03-22T10:29:57;7.90;;;7.15;;
16029;SDS011;34770;49.272;11.070;2024-03-22T10:32:23;10.50;;;6.85;;
16029;SDS011;34770;49.272;11.070;2024-03-22T10:34:49;9.77;;;8.10;;
16029;SDS011;34770;49.272;11.070;2024-03-22T10:37:16;8.35;;;7.00;;
16029;SDS011;34770;49.272;11.070;2024-03-22T10:39:42;11.23;;;7.88;;
16029;SDS011;34770;49.272;11.070;2024-03-22T10:42:11;9.52;;;7.85;;
16029;SDS011;34770;49.272;11.070;2024-03-22T10:44:37;7.85;;;6.75;;
16029;SDS011;34770;49.272;11.070;2024-03-22T10:47:04;8.80;;;6.57;;
16029;SDS011;34770;49.272;11.070;2024-03-22T10:49:30;7.18;;;6.47;;
16029;SDS011;34770;49.272;11.070;2024-03-22T10:52:02;8.25;;;6.78;;
16029;SDS011;34770;49.272;11.070;2024-03-22T10:54:37;8.63;;;6.70;;
16029;SDS011;34770;49.272;11.070;2024-03-22T10:57:05;7.82;;;6.82;;
16029;SDS011;34770;49.272;11.070;2024-03-22T10:59:36;7.43;;;6.55;;
16029;SDS011;34770;49.272;11.070;2024-03-22T11:02:03;7.18;;;6.47;;
16029;SDS011;34770;49.272;11.070;2024-03-22T11:04:30;10.25;;;5.60;;
16029;SDS011;34770;49.272;11.070;2024-03-22T11:06:56;8.27;;;6.57;;
16029;SDS011;34770;49.272;11.070;2024-03-22T11:09:23;7.63;;;6.38;;
16029;SDS011;34770;49.272;11.070;2024-03-22T11:11:54;7.53;;;5.80;;
16029;SDS011;34770;49.272;11.070;2024-03-22T11:14:21;7.78;;;5.95;;
16029;SDS011;34770;49.272;11.070;2024-03-22T11:16:49;7.88;;;6.63;;
16029;SDS011;34770;49.272;11.070;2024-03-22T11:19:15;7.40;;;6.70;;
16029;SDS011;34770;49.272;11.070;2024-03-22T11:21:40;8.05;;;5.90;;
16029;SDS011;34770;49.272;11.070;2024-03-22T11:24:06;6.50;;;5.60;;
16029;SDS011;34770;49.272;11.070;2024-03-22T11:26:32;7.07;;;6.10;;
16029;SDS011;34770;49.272;11.070;2024-03-22T11:29:00;9.55;;;6.35;;
16029;SDS011;34770;49.272;11.070;2024-03-22T11:31:27;6.93;;;5.47;;
16029;SDS011;34770;49.272;11.070;2024-03-22T11:33:56;7.32;;;6.13;;
16029;SDS011;34770;49.272;11.070;2024-03-22T11:36:22;5.38;;;4.88;;
16029;SDS011;34770;49.272;11.070;2024-03-22T11:38:48;7.18;;;5.95;;
16029;SDS011;34770;49.272;11.070;2024-03-22T11:41:24;8.43;;;7.03;;
16029;SDS011;34770;49.272;11.070;2024-03-22T11:43:52;5.93;;;5.30;;
16029;SDS011;34770;49.272;11.070;2024-03-22T11:46:18;6.55;;;5.22;;
16029;SDS011;34770;49.272;11.070;2024-03-22T11:48:50;6.10;;;4.80;;
16029;SDS011;34770;49.272;11.070;2024-03-22T11:51:16;5.50;;;4.05;;
16029;SDS011;34770;49.272;11.070;2024-03-22T11:53:48;5.00;;;4.07;;
16029;SDS011;34770;49.272;11.070;2024-03-22T11:56:17;5.35;;;4.20;;
16029;SDS011;34770;49.272;11.070;2024-03-22T11:58:43;5.82;;;3.58;;
16029;SDS011;34770;49.272;11.070;2024-03-22T12:01:10;6.03;;;3.80;;
16029;SDS011;34770;49.272;11.070;2024-03-22T12:03:35;4.50;;;4.07;;
16029;SDS011;34770;49.272;11.070;2024-03-22T12:06:01;3.67;;;3.30;;
16029;SDS011;34770;49.272;11.070;2024-03-22T12:08:26;3.53;;;3.22;;
16029;SDS011;34770;49.272;11.070;2024-03-22T12:10:52;3.30;;;3.00;;
16029;SDS011;34770;49.272;11.070;2024-03-22T12:13:17;3.38;;;3.00;;
16029;SDS011;34770;49.272;11.070;2024-03-22T12:15:42;3.17;;;2.88;;
16029;SDS011;34770;49.272;11.070;2024-03-22T12:18:08;3.70;;;2.78;;
16029;SDS011;34770;49.272;11.070;2024-03-22T12:20:33;3.10;;;2.80;;
16029;SDS011;34770;49.272;11.070;2024-03-22T12:22:59;3.20;;;2.72;;
16029;SDS011;34770;49.272;11.070;2024-03-22T12:25:24;3.92;;;2.88;;
16029;SDS011;34770;49.272;11.070;2024-03-22T12:27:50;2.72;;;2.53;;
16029;SDS011;34770;49.272;11.070;2024-03-22T12:30:15;3.05;;;2.83;;
16029;SDS011;34770;49.272;11.070;2024-03-22T12:32:41;2.80;;;2.55;;
16029;SDS011;34770;49.272;11.070;2024-03-22T12:35:06;3.38;;;2.70;;
16029;SDS011;34770;49.272;11.070;2024-03-22T12:37:33;4.80;;;2.50;;
16029;SDS011;34770;49.272;11.070;2024-03-22T12:39:58;3.03;;;2.72;;
16029;SDS011;34770;49.272;11.070;2024-03-22T12:42:24;3.47;;;3.00;;
16029;SDS011;34770;49.272;11.070;2024-03-22T12:44:50;2.78;;;2.50;;
16029;SDS011;34770;49.272;11.070;2024-03-22T12:47:15;4.60;;;2.80;;
16029;SDS011;34770;49.272;11.070;2024-03-22T12:49:40;3.83;;;2.90;;
16029;SDS011;34770;49.272;11.070;2024-03-22T12:52:06;3.55;;;3.25;;
16029;SDS011;34770;49.272;11.070;2024-03-22T12:54:32;3.58;;;3.28;;
16029;SDS011;34770;49.272;11.070;2024-03-22T12:56:57;3.67;;;3.38;;
16029;SDS011;34770;49.272;11.070;2024-03-22T12:59:23;3.92;;;3.45;;
16029;SDS011;34770;49.272;11.070;2024-03-22T13:01:48;4.43;;;4.03;;
16029;SDS011;34770;49.272;11.070;2024-03-22T13:04:14;5.95;;;4.22;;
16029;SDS011;34770;49.272;11.070;2024-03-22T13:06:39;4.72;;;3.53;;
16029;SDS011;34770;49.272;11.070;2024-03-22T13:09:05;4.03;;;3.58;;
16029;SDS011;34770;49.272;11.070;2024-03-22T13:11:31;3.35;;;3.05;;
16029;SDS011;34770;49.272;11.070;2024-03-22T13:13:57;3.40;;;3.10;;
16029;SDS011;34770;49.272;11.070;2024-03-22T13:16:23;3.25;;;2.95;;
16029;SDS011;34770;49.272;11.070;2024-03-22T13:18:48;3.45;;;2.80;;
16029;SDS011;34770;49.272;11.070;2024-03-22T13:21:14;3.42;;;3.13;;
16029;SDS011;34770;49.272;11.070;2024-03-22T13:23:39;5.97;;;3.60;;
16029;SDS011;34770;49.272;11.070;2024-03-22T13:26:05;3.63;;;3.33;;
16029;SDS011;34770;49.272;11.070;2024-03-22T13:28:31;4.50;;;3.40;;
16029;SDS011;34770;49.272;11.070;2024-03-22T13:31:01;3.92;;;3.63;;
16029;SDS011;34770;49.272;11.070;2024-03-22T13:33:27;5.18;;;3.40;;
16029;SDS011;34770;49.272;11.070;2024-03-22T13:35:53;3.83;;;3.42;;
16029;SDS011;34770;49.272;11.070;2024-03-22T13:38:18;5.43;;;3.85;;
16029;SDS011;34770;49.272;11.070;2024-03-22T13:40:43;4.18;;;3.75;;
16029;SDS011;34770;49.272;11.070;2024-03-22T13:43:18;5.03;;;4.47;;
16029;SDS011;34770;49.272;11.070;2024-03-22T13:45:43;4.30;;;3.88;;
16029;SDS011;34770;49.272;11.070;2024-03-22T13:48:10;5.22;;;3.60;;
16029;SDS011;34770;49.272;11.070;2024-03-22T13:50:37;3.67;;;3.38;;
16029;SDS011;34770;49.272;11.070;2024-03-22T13:53:03;4.15;;;3.65;;
16029;SDS011;34770;49.272;11.070;2024-03-22T13:55:28;3.72;;;3.13;;
16029;SDS011;34770;49.272;11.070;2024-03-22T13:57:54;3.42;;;3.15;;
16029;SDS011;34770;49.272;11.070;2024-03-22T14:00:19;3.20;;;2.92;;
16029;SDS011;34770;49.272;11.070;2024-03-22T14:02:45;3.65;;;2.67;;
16029;SDS011;34770;49.272;11.070;2024-03-22T14:05:10;2.92;;;2.67;;
16029;SDS011;34770;49.272;11.070;2024-03-22T14:07:36;3.13;;;2.83;;
16029;SDS011;34770;49.272;11.070;2024-03-22T14:10:05;4.20;;;2.72;;
16029;SDS011;34770;49.272;11.070;2024-03-22T14:12:31;3.03;;;2.72;;
16029;SDS011;34770;49.272;11.070;2024-03-22T14:14:58;2.60;;;2.40;;
16029;SDS011;34770;49.272;11.070;2024-03-22T14:17:32;3.97;;;2.60;;
16029;SDS011;34770;49.272;11.070;2024-03-22T14:20:05;2.78;;;2.47;;
16029;SDS011;34770;49.272;11.070;2024-03-22T14:22:36;2.85;;;2.65;;
16029;SDS011;34770;49.272;11.070;2024-03-22T14:25:03;3.15;;;2.85;;
16029;SDS011;34770;49.272;11.070;2024-03-22T14:27:29;3.97;;;2.55;;
16029;SDS011;34770;49.272;11.070;2024-03-22T14:29:55;3.05;;;2.60;;
16029;SDS011;34770;49.272;11.070;2024-03-22T14:32:20;2.55;;;2.35;;
16029;SDS011;34770;49.272;11.070;2024-03-22T14:34:46;3.25;;;3.00;;
16029;SDS011;34770;49.272;11.070;2024-03-22T14:37:11;2.92;;;2.72;;
16029;SDS011;34770;49.272;11.070;2024-03-22T14:39:37;3.72;;;2.42;;